sensor_id;sensor_type;location;lat;lon;timestamp;P1;durP1;ratioP1;P2;durP2;ratioP2
55758;SDS011;41678;52.126;20.664;2023-07-13T00:04:24;13.88;;;5.07;;
55758;SDS011;41678;52.126;20.664;2023-07-13T00:09:44;13.65;;;4.90;;
55758;SDS011;41678;52.126;20.664;2023-07-13T00:15:07;9.02;;;4.63;;
55758;SDS011;41678;52.126;20.664;2023-07-13T00:20:32;11.38;;;4.93;;
55758;SDS011;41678;52.126;20.664;2023-07-13T00:25:52;10.75;;;5.35;;
55758;SDS011;41678;52.126;20.664;2023-07-13T00:31:12;15.13;;;5.43;;
55758;SDS011;41678;52.126;20.664;2023-07-13T00:36:33;12.73;;;5.30;;
55758;SDS011;41678;52.126;20.664;2023-07-13T00:41:53;12.80;;;4.68;;
55758;SDS011;41678;52.126;20.664;2023-07-13T00:47:13;10.98;;;5.35;;
55758;SDS011;41678;52.126;20.664;2023-07-13T00:52:33;11.45;;;4.93;;
55758;SDS011;41678;52.126;20.664;2023-07-13T00:57:55;9.20;;;4.28;;
55758;SDS011;41678;52.126;20.664;2023-07-13T01:03:15;12.95;;;5.38;;
55758;SDS011;41678;52.126;20.664;2023-07-13T01:08:35;13.93;;;4.88;;
55758;SDS011;41678;52.126;20.664;2023-07-13T01:13:55;10.55;;;5.35;;
55758;SDS011;41678;52.126;20.664;2023-07-13T01:24:55;14.83;;;5.80;;
55758;SDS011;41678;52.126;20.664;2023-07-13T01:30:15;11.27;;;4.95;;
55758;SDS011;41678;52.126;20.664;2023-07-13T01:35:35;9.40;;;4.78;;
55758;SDS011;41678;52.126;20.664;2023-07-13T01:40:55;10.57;;;5.27;;
55758;SDS011;41678;52.126;20.664;2023-07-13T01:46:17;9.27;;;5.28;;
55758;SDS011;41678;52.126;20.664;2023-07-13T01:51:36;11.65;;;5.28;;
55758;SDS011;41678;52.126;20.664;2023-07-13T01:56:57;14.73;;;5.28;;
55758;SDS011;41678;52.126;20.664;2023-07-13T02:02:17;10.38;;;5.32;;
55758;SDS011;41678;52.126;20.664;2023-07-13T02:07:36;13.82;;;5.60;;
55758;SDS011;41678;52.126;20.664;2023-07-13T02:12:57;13.03;;;5.50;;
55758;SDS011;41678;52.126;20.664;2023-07-13T02:18:16;9.95;;;5.00;;
55758;SDS011;41678;52.126;20.664;2023-07-13T02:23:36;12.88;;;5.68;;
55758;SDS011;41678;52.126;20.664;2023-07-13T02:28:56;13.10;;;6.25;;
55758;SDS011;41678;52.126;20.664;2023-07-13T02:34:15;14.00;;;5.28;;
55758;SDS011;41678;52.126;20.664;2023-07-13T02:39:35;13.50;;;5.88;;
55758;SDS011;41678;52.126;20.664;2023-07-13T02:50:16;15.73;;;6.05;;
55758;SDS011;41678;52.126;20.664;2023-07-13T02:55:36;12.18;;;5.78;;
55758;SDS011;41678;52.126;20.664;2023-07-13T03:00:56;15.10;;;6.40;;
55758;SDS011;41678;52.126;20.664;2023-07-13T03:06:17;16.45;;;6.63;;
55758;SDS011;41678;52.126;20.664;2023-07-13T03:11:43;19.38;;;5.93;;
55758;SDS011;41678;52.126;20.664;2023-07-13T03:22:35;10.25;;;5.63;;
55758;SDS011;41678;52.126;20.664;2023-07-13T03:27:55;11.35;;;6.82;;
55758;SDS011;41678;52.126;20.664;2023-07-13T03:33:16;11.13;;;6.50;;
55758;SDS011;41678;52.126;20.664;2023-07-13T03:38:36;15.07;;;6.25;;
55758;SDS011;41678;52.126;20.664;2023-07-13T03:43:57;11.57;;;6.25;;
55758;SDS011;41678;52.126;20.664;2023-07-13T03:49:19;15.68;;;6.40;;
55758;SDS011;41678;52.126;20.664;2023-07-13T03:54:39;13.32;;;5.75;;
55758;SDS011;41678;52.126;20.664;2023-07-13T04:05:19;15.70;;;6.18;;
55758;SDS011;41678;52.126;20.664;2023-07-13T04:10:40;22.23;;;7.63;;
55758;SDS011;41678;52.126;20.664;2023-07-13T04:15:59;15.23;;;7.38;;
55758;SDS011;41678;52.126;20.664;2023-07-13T04:21:19;19.02;;;6.43;;
55758;SDS011;41678;52.126;20.664;2023-07-13T04:26:38;12.55;;;6.63;;
55758;SDS011;41678;52.126;20.664;2023-07-13T04:31:59;15.67;;;7.23;;
55758;SDS011;41678;52.126;20.664;2023-07-13T04:37:19;12.95;;;6.78;;
55758;SDS011;41678;52.126;20.664;2023-07-13T04:42:39;11.57;;;6.80;;
55758;SDS011;41678;52.126;20.664;2023-07-13T04:47:59;14.55;;;6.43;;
55758;SDS011;41678;52.126;20.664;2023-07-13T04:53:19;13.38;;;6.80;;
55758;SDS011;41678;52.126;20.664;2023-07-13T04:58:38;14.70;;;6.68;;
55758;SDS011;41678;52.126;20.664;2023-07-13T05:03:59;16.95;;;6.95;;
55758;SDS011;41678;52.126;20.664;2023-07-13T05:09:19;11.45;;;6.70;;
55758;SDS011;41678;52.126;20.664;2023-07-13T05:14:39;11.07;;;6.15;;
55758;SDS011;41678;52.126;20.664;2023-07-13T05:19:58;18.17;;;7.55;;
55758;SDS011;41678;52.126;20.664;2023-07-13T05:25:18;21.92;;;7.10;;
55758;SDS011;41678;52.126;20.664;2023-07-13T05:30:38;16.77;;;6.78;;
55758;SDS011;41678;52.126;20.664;2023-07-13T05:35:58;14.75;;;6.10;;
55758;SDS011;41678;52.126;20.664;2023-07-13T05:41:19;11.73;;;6.35;;
55758;SDS011;41678;52.126;20.664;2023-07-13T05:46:38;11.60;;;6.13;;
55758;SDS011;41678;52.126;20.664;2023-07-13T05:51:58;13.48;;;6.05;;
55758;SDS011;41678;52.126;20.664;2023-07-13T05:57:17;11.73;;;6.85;;
55758;SDS011;41678;52.126;20.664;2023-07-13T06:02:37;16.50;;;6.05;;
55758;SDS011;41678;52.126;20.664;2023-07-13T06:07:57;16.00;;;6.13;;
55758;SDS011;41678;52.126;20.664;2023-07-13T06:13:16;13.95;;;6.10;;
55758;SDS011;41678;52.126;20.664;2023-07-13T06:18:38;17.25;;;6.38;;
55758;SDS011;41678;52.126;20.664;2023-07-13T06:23:58;17.17;;;7.43;;
55758;SDS011;41678;52.126;20.664;2023-07-13T06:29:18;17.30;;;8.25;;
55758;SDS011;41678;52.126;20.664;2023-07-13T06:34:37;16.25;;;8.85;;
55758;SDS011;41678;52.126;20.664;2023-07-13T06:39:56;14.50;;;8.73;;
55758;SDS011;41678;52.126;20.664;2023-07-13T06:45:16;19.63;;;7.93;;
55758;SDS011;41678;52.126;20.664;2023-07-13T06:50:36;13.82;;;7.22;;
55758;SDS011;41678;52.126;20.664;2023-07-13T06:55:56;12.55;;;6.78;;
55758;SDS011;41678;52.126;20.664;2023-07-13T07:01:15;13.75;;;7.43;;
55758;SDS011;41678;52.126;20.664;2023-07-13T07:06:35;13.18;;;6.30;;
55758;SDS011;41678;52.126;20.664;2023-07-13T07:11:54;17.45;;;6.00;;
55758;SDS011;41678;52.126;20.664;2023-07-13T07:17:13;10.30;;;6.18;;
55758;SDS011;41678;52.126;20.664;2023-07-13T07:22:33;19.17;;;6.15;;
55758;SDS011;41678;52.126;20.664;2023-07-13T07:27:53;10.98;;;6.07;;
55758;SDS011;41678;52.126;20.664;2023-07-13T07:33:12;12.95;;;7.10;;
55758;SDS011;41678;52.126;20.664;2023-07-13T07:38:32;10.80;;;6.23;;
55758;SDS011;41678;52.126;20.664;2023-07-13T07:43:52;10.48;;;6.10;;
55758;SDS011;41678;52.126;20.664;2023-07-13T07:49:11;10.48;;;5.90;;
55758;SDS011;41678;52.126;20.664;2023-07-13T07:54:31;11.73;;;5.78;;
55758;SDS011;41678;52.126;20.664;2023-07-13T07:59:50;13.10;;;6.32;;
55758;SDS011;41678;52.126;20.664;2023-07-13T08:05:10;12.50;;;5.82;;
55758;SDS011;41678;52.126;20.664;2023-07-13T08:10:29;11.10;;;6.27;;
55758;SDS011;41678;52.126;20.664;2023-07-13T08:15:49;16.63;;;6.50;;
55758;SDS011;41678;52.126;20.664;2023-07-13T08:21:09;11.05;;;6.13;;
55758;SDS011;41678;52.126;20.664;2023-07-13T08:26:29;13.13;;;6.93;;
55758;SDS011;41678;52.126;20.664;2023-07-13T08:31:49;11.77;;;6.93;;
55758;SDS011;41678;52.126;20.664;2023-07-13T08:37:09;17.40;;;7.40;;
55758;SDS011;41678;52.126;20.664;2023-07-13T08:42:32;11.07;;;6.40;;
55758;SDS011;41678;52.126;20.664;2023-07-13T08:48:05;11.80;;;5.68;;
55758;SDS011;41678;52.126;20.664;2023-07-13T08:53:32;11.40;;;6.40;;
55758;SDS011;41678;52.126;20.664;2023-07-13T08:59:09;10.73;;;6.10;;
55758;SDS011;41678;52.126;20.664;2023-07-13T09:04:36;10.90;;;6.15;;
55758;SDS011;41678;52.126;20.664;2023-07-13T09:15:45;13.30;;;6.43;;
55758;SDS011;41678;52.126;20.664;2023-07-13T09:26:28;12.02;;;6.18;;
55758;SDS011;41678;52.126;20.664;2023-07-13T09:31:52;16.85;;;6.55;;
55758;SDS011;41678;52.126;20.664;2023-07-13T09:37:14;11.73;;;6.30;;
55758;SDS011;41678;52.126;20.664;2023-07-13T09:42:34;24.23;;;6.73;;
55758;SDS011;41678;52.126;20.664;2023-07-13T09:48:04;14.07;;;6.15;;
55758;SDS011;41678;52.126;20.664;2023-07-13T09:53:32;12.55;;;6.88;;
55758;SDS011;41678;52.126;20.664;2023-07-13T09:58:52;18.10;;;7.13;;
55758;SDS011;41678;52.126;20.664;2023-07-13T10:04:12;9.38;;;5.72;;
55758;SDS011;41678;52.126;20.664;2023-07-13T10:14:57;15.55;;;7.15;;
55758;SDS011;41678;52.126;20.664;2023-07-13T10:20:21;13.50;;;6.28;;
55758;SDS011;41678;52.126;20.664;2023-07-13T10:25:42;13.77;;;5.20;;
55758;SDS011;41678;52.126;20.664;2023-07-13T10:31:04;15.57;;;5.60;;
55758;SDS011;41678;52.126;20.664;2023-07-13T10:36:32;18.08;;;4.63;;
55758;SDS011;41678;52.126;20.664;2023-07-13T10:41:59;9.32;;;2.92;;
55758;SDS011;41678;52.126;20.664;2023-07-13T10:47:24;10.27;;;3.17;;
55758;SDS011;41678;52.126;20.664;2023-07-13T10:52:49;6.25;;;2.72;;
55758;SDS011;41678;52.126;20.664;2023-07-13T11:04:00;8.43;;;2.90;;
55758;SDS011;41678;52.126;20.664;2023-07-13T11:25:35;21.55;;;5.85;;
55758;SDS011;41678;52.126;20.664;2023-07-13T11:36:17;18.67;;;4.95;;
55758;SDS011;41678;52.126;20.664;2023-07-13T11:41:45;10.40;;;4.43;;
55758;SDS011;41678;52.126;20.664;2023-07-13T11:47:11;11.80;;;3.05;;
55758;SDS011;41678;52.126;20.664;2023-07-13T11:52:36;9.77;;;3.60;;
55758;SDS011;41678;52.126;20.664;2023-07-13T11:57:58;9.40;;;3.97;;
55758;SDS011;41678;52.126;20.664;2023-07-13T12:03:21;8.63;;;4.10;;
55758;SDS011;41678;52.126;20.664;2023-07-13T12:08:43;10.25;;;3.92;;
55758;SDS011;41678;52.126;20.664;2023-07-13T12:14:03;8.38;;;3.45;;
55758;SDS011;41678;52.126;20.664;2023-07-13T12:19:23;10.65;;;4.35;;
55758;SDS011;41678;52.126;20.664;2023-07-13T12:24:46;8.77;;;4.22;;
55758;SDS011;41678;52.126;20.664;2023-07-13T12:35:50;12.50;;;4.20;;
55758;SDS011;41678;52.126;20.664;2023-07-13T12:41:11;14.70;;;5.18;;
55758;SDS011;41678;52.126;20.664;2023-07-13T12:46:31;8.40;;;4.53;;
55758;SDS011;41678;52.126;20.664;2023-07-13T12:51:50;8.30;;;4.25;;
55758;SDS011;41678;52.126;20.664;2023-07-13T12:57:16;9.85;;;4.50;;
55758;SDS011;41678;52.126;20.664;2023-07-13T13:02:36;9.30;;;4.22;;
55758;SDS011;41678;52.126;20.664;2023-07-13T13:07:55;9.00;;;4.53;;
55758;SDS011;41678;52.126;20.664;2023-07-13T13:13:14;14.63;;;5.18;;
55758;SDS011;41678;52.126;20.664;2023-07-13T13:18:34;9.52;;;4.97;;
55758;SDS011;41678;52.126;20.664;2023-07-13T13:23:55;10.48;;;5.55;;
55758;SDS011;41678;52.126;20.664;2023-07-13T13:29:16;9.05;;;5.40;;
55758;SDS011;41678;52.126;20.664;2023-07-13T13:34:37;12.68;;;5.50;;
55758;SDS011;41678;52.126;20.664;2023-07-13T13:39:56;9.60;;;5.18;;
55758;SDS011;41678;52.126;20.664;2023-07-13T13:45:16;11.98;;;5.47;;
55758;SDS011;41678;52.126;20.664;2023-07-13T13:55:56;11.43;;;5.60;;
55758;SDS011;41678;52.126;20.664;2023-07-13T14:01:22;12.13;;;5.53;;
55758;SDS011;41678;52.126;20.664;2023-07-13T14:06:44;10.90;;;5.53;;
55758;SDS011;41678;52.126;20.664;2023-07-13T14:12:04;11.60;;;5.40;;
55758;SDS011;41678;52.126;20.664;2023-07-13T14:17:25;11.80;;;5.72;;
55758;SDS011;41678;52.126;20.664;2023-07-13T14:22:46;9.77;;;5.55;;
55758;SDS011;41678;52.126;20.664;2023-07-13T14:28:24;12.32;;;6.20;;
55758;SDS011;41678;52.126;20.664;2023-07-13T14:33:46;10.40;;;5.90;;
55758;SDS011;41678;52.126;20.664;2023-07-13T14:39:11;10.25;;;5.47;;
55758;SDS011;41678;52.126;20.664;2023-07-13T14:44:34;10.60;;;6.00;;
55758;SDS011;41678;52.126;20.664;2023-07-13T14:49:53;11.73;;;6.10;;
55758;SDS011;41678;52.126;20.664;2023-07-13T14:55:14;13.63;;;6.13;;
55758;SDS011;41678;52.126;20.664;2023-07-13T15:00:35;10.98;;;5.47;;
55758;SDS011;41678;52.126;20.664;2023-07-13T15:11:16;12.93;;;6.32;;
55758;SDS011;41678;52.126;20.664;2023-07-13T15:16:36;10.23;;;6.30;;
55758;SDS011;41678;52.126;20.664;2023-07-13T15:21:56;12.25;;;6.03;;
55758;SDS011;41678;52.126;20.664;2023-07-13T15:27:19;12.55;;;6.30;;
55758;SDS011;41678;52.126;20.664;2023-07-13T15:32:39;13.38;;;6.22;;
55758;SDS011;41678;52.126;20.664;2023-07-13T15:37:58;17.90;;;5.95;;
55758;SDS011;41678;52.126;20.664;2023-07-13T15:43:18;10.60;;;5.40;;
55758;SDS011;41678;52.126;20.664;2023-07-13T15:48:37;8.85;;;4.82;;
55758;SDS011;41678;52.126;20.664;2023-07-13T15:54:00;10.18;;;5.00;;
55758;SDS011;41678;52.126;20.664;2023-07-13T15:59:24;16.17;;;5.40;;
55758;SDS011;41678;52.126;20.664;2023-07-13T16:04:44;11.85;;;4.65;;
55758;SDS011;41678;52.126;20.664;2023-07-13T16:10:04;9.87;;;5.33;;
55758;SDS011;41678;52.126;20.664;2023-07-13T16:15:24;7.88;;;4.90;;
55758;SDS011;41678;52.126;20.664;2023-07-13T16:20:44;7.70;;;4.47;;
55758;SDS011;41678;52.126;20.664;2023-07-13T16:26:12;9.40;;;4.53;;
55758;SDS011;41678;52.126;20.664;2023-07-13T16:37:26;8.82;;;4.55;;
55758;SDS011;41678;52.126;20.664;2023-07-13T16:42:49;10.10;;;4.38;;
55758;SDS011;41678;52.126;20.664;2023-07-13T16:48:16;7.45;;;4.43;;
55758;SDS011;41678;52.126;20.664;2023-07-13T16:53:38;9.82;;;4.07;;
55758;SDS011;41678;52.126;20.664;2023-07-13T16:59:07;8.77;;;3.92;;
55758;SDS011;41678;52.126;20.664;2023-07-13T17:04:37;7.88;;;3.90;;
55758;SDS011;41678;52.126;20.664;2023-07-13T17:09:56;7.95;;;3.75;;
55758;SDS011;41678;52.126;20.664;2023-07-13T17:15:17;8.40;;;4.10;;
55758;SDS011;41678;52.126;20.664;2023-07-13T17:20:38;9.90;;;4.20;;
55758;SDS011;41678;52.126;20.664;2023-07-13T17:26:07;8.05;;;4.45;;
55758;SDS011;41678;52.126;20.664;2023-07-13T17:31:26;9.65;;;4.53;;
55758;SDS011;41678;52.126;20.664;2023-07-13T17:36:46;9.60;;;4.07;;
55758;SDS011;41678;52.126;20.664;2023-07-13T17:42:06;7.93;;;4.40;;
55758;SDS011;41678;52.126;20.664;2023-07-13T17:47:26;13.30;;;5.13;;
55758;SDS011;41678;52.126;20.664;2023-07-13T17:52:46;7.30;;;4.05;;
55758;SDS011;41678;52.126;20.664;2023-07-13T17:58:06;9.30;;;3.95;;
55758;SDS011;41678;52.126;20.664;2023-07-13T18:03:26;9.93;;;4.10;;
55758;SDS011;41678;52.126;20.664;2023-07-13T18:08:54;10.45;;;4.85;;
55758;SDS011;41678;52.126;20.664;2023-07-13T18:14:16;10.15;;;4.47;;
55758;SDS011;41678;52.126;20.664;2023-07-13T18:19:37;11.30;;;4.07;;
55758;SDS011;41678;52.126;20.664;2023-07-13T18:24:59;7.05;;;3.67;;
55758;SDS011;41678;52.126;20.664;2023-07-13T18:30:22;12.68;;;4.10;;
55758;SDS011;41678;52.126;20.664;2023-07-13T18:35:42;10.57;;;4.00;;
55758;SDS011;41678;52.126;20.664;2023-07-13T18:41:01;10.43;;;4.18;;
55758;SDS011;41678;52.126;20.664;2023-07-13T18:46:25;7.95;;;4.10;;
55758;SDS011;41678;52.126;20.664;2023-07-13T18:51:51;11.20;;;6.10;;
55758;SDS011;41678;52.126;20.664;2023-07-13T18:57:10;11.68;;;6.32;;
55758;SDS011;41678;52.126;20.664;2023-07-13T19:02:29;12.38;;;6.40;;
55758;SDS011;41678;52.126;20.664;2023-07-13T19:07:50;11.55;;;6.15;;
55758;SDS011;41678;52.126;20.664;2023-07-13T19:13:10;10.70;;;5.82;;
55758;SDS011;41678;52.126;20.664;2023-07-13T19:18:33;15.50;;;5.50;;
55758;SDS011;41678;52.126;20.664;2023-07-13T19:23:52;10.73;;;5.63;;
55758;SDS011;41678;52.126;20.664;2023-07-13T19:29:13;10.35;;;5.43;;
55758;SDS011;41678;52.126;20.664;2023-07-13T19:34:33;12.32;;;5.65;;
55758;SDS011;41678;52.126;20.664;2023-07-13T19:39:53;18.15;;;5.20;;
55758;SDS011;41678;52.126;20.664;2023-07-13T19:45:19;10.15;;;4.95;;
55758;SDS011;41678;52.126;20.664;2023-07-13T19:50:41;13.77;;;5.18;;
55758;SDS011;41678;52.126;20.664;2023-07-13T19:56:01;11.30;;;5.95;;
55758;SDS011;41678;52.126;20.664;2023-07-13T20:01:23;14.85;;;5.88;;
55758;SDS011;41678;52.126;20.664;2023-07-13T20:06:43;12.13;;;6.50;;
55758;SDS011;41678;52.126;20.664;2023-07-13T20:12:09;13.15;;;6.10;;
55758;SDS011;41678;52.126;20.664;2023-07-13T20:17:35;20.30;;;6.43;;
55758;SDS011;41678;52.126;20.664;2023-07-13T20:22:56;18.10;;;6.63;;
55758;SDS011;41678;52.126;20.664;2023-07-13T20:28:16;11.02;;;5.95;;
55758;SDS011;41678;52.126;20.664;2023-07-13T20:33:36;13.07;;;6.00;;
55758;SDS011;41678;52.126;20.664;2023-07-13T20:38:56;11.45;;;6.35;;
55758;SDS011;41678;52.126;20.664;2023-07-13T20:44:16;8.95;;;5.20;;
55758;SDS011;41678;52.126;20.664;2023-07-13T20:49:35;13.88;;;6.45;;
55758;SDS011;41678;52.126;20.664;2023-07-13T20:54:55;9.38;;;5.93;;
55758;SDS011;41678;52.126;20.664;2023-07-13T21:00:20;12.20;;;5.75;;
55758;SDS011;41678;52.126;20.664;2023-07-13T21:05:44;10.68;;;6.57;;
55758;SDS011;41678;52.126;20.664;2023-07-13T21:11:04;10.23;;;5.67;;
55758;SDS011;41678;52.126;20.664;2023-07-13T21:16:27;12.32;;;5.88;;
55758;SDS011;41678;52.126;20.664;2023-07-13T21:21:48;11.40;;;6.05;;
55758;SDS011;41678;52.126;20.664;2023-07-13T21:27:08;13.15;;;5.95;;
55758;SDS011;41678;52.126;20.664;2023-07-13T21:32:29;14.45;;;6.32;;
55758;SDS011;41678;52.126;20.664;2023-07-13T21:37:49;20.30;;;5.90;;
55758;SDS011;41678;52.126;20.664;2023-07-13T21:43:10;13.25;;;6.55;;
55758;SDS011;41678;52.126;20.664;2023-07-13T21:48:31;14.97;;;5.93;;
55758;SDS011;41678;52.126;20.664;2023-07-13T21:53:51;10.68;;;6.25;;
55758;SDS011;41678;52.126;20.664;2023-07-13T21:59:25;14.15;;;6.15;;
55758;SDS011;41678;52.126;20.664;2023-07-13T22:04:46;9.43;;;5.78;;
55758;SDS011;41678;52.126;20.664;2023-07-13T22:10:16;12.05;;;6.68;;
55758;SDS011;41678;52.126;20.664;2023-07-13T22:15:38;13.43;;;7.18;;
55758;SDS011;41678;52.126;20.664;2023-07-13T22:20:59;13.45;;;6.75;;
55758;SDS011;41678;52.126;20.664;2023-07-13T22:26:23;13.43;;;6.13;;
55758;SDS011;41678;52.126;20.664;2023-07-13T22:31:46;11.50;;;6.43;;
55758;SDS011;41678;52.126;20.664;2023-07-13T22:37:07;12.20;;;6.88;;
55758;SDS011;41678;52.126;20.664;2023-07-13T22:42:28;12.10;;;6.85;;
55758;SDS011;41678;52.126;20.664;2023-07-13T22:47:47;15.13;;;7.47;;
55758;SDS011;41678;52.126;20.664;2023-07-13T22:53:11;13.25;;;6.80;;
55758;SDS011;41678;52.126;20.664;2023-07-13T22:58:32;12.40;;;7.30;;
55758;SDS011;41678;52.126;20.664;2023-07-13T23:03:53;14.90;;;8.40;;
55758;SDS011;41678;52.126;20.664;2023-07-13T23:09:18;12.00;;;7.25;;
55758;SDS011;41678;52.126;20.664;2023-07-13T23:14:39;13.88;;;7.07;;
55758;SDS011;41678;52.126;20.664;2023-07-13T23:19:58;19.25;;;7.20;;
55758;SDS011;41678;52.126;20.664;2023-07-13T23:25:18;10.70;;;6.93;;
55758;SDS011;41678;52.126;20.664;2023-07-13T23:30:41;13.32;;;7.10;;
55758;SDS011;41678;52.126;20.664;2023-07-13T23:36:05;14.05;;;7.35;;
55758;SDS011;41678;52.126;20.664;2023-07-13T23:41:31;13.35;;;7.50;;
55758;SDS011;41678;52.126;20.664;2023-07-13T23:46:52;17.58;;;7.15;;
55758;SDS011;41678;52.126;20.664;2023-07-13T23:52:13;14.32;;;7.18;;
55758;SDS011;41678;52.126;20.664;2023-07-13T23:57:33;12.60;;;7.13;;
